createdAt,value
2023-05-01T00:02:17.896Z,17.70
2023-05-01T00:04:47.153Z,13.70
2023-05-01T00:07:16.984Z,16.40
2023-05-01T00:09:46.369Z,19.50
2023-05-01T00:12:15.063Z,18.00
2023-05-01T00:14:44.306Z,17.30
2023-05-01T00:17:13.253Z,15.50
2023-05-01T00:19:41.943Z,15.90
2023-05-01T00:22:10.834Z,16.50
2023-05-01T00:24:39.606Z,16.90
2023-05-01T00:27:09.215Z,14.20
2023-05-01T00:29:38.537Z,13.40
2023-05-01T00:32:07.954Z,16.90
2023-05-01T00:34:36.504Z,16.50
2023-05-01T00:37:05.505Z,15.10
2023-05-01T00:39:35.138Z,16.70
2023-05-01T00:42:04.311Z,17.80
2023-05-01T00:44:33.094Z,15.50
2023-05-01T00:47:02.829Z,15.50
2023-05-01T00:49:31.804Z,15.90
2023-05-01T00:52:00.486Z,14.70
2023-05-01T00:54:29.591Z,16.30
2023-05-01T00:56:59.282Z,16.70
2023-05-01T00:59:28.589Z,14.30
2023-05-01T01:01:57.268Z,17.60
2023-05-01T01:04:29.274Z,17.30
2023-05-01T01:07:26.185Z,15.60
2023-05-01T01:09:57.890Z,16.50
2023-05-01T01:12:39.223Z,15.90
2023-05-01T01:15:27.575Z,18.10
2023-05-01T01:18:09.965Z,20.50
2023-05-01T01:21:11.455Z,18.90
2023-05-01T01:24:02.330Z,15.90
2023-05-01T01:26:52.113Z,20.60
2023-05-01T01:29:48.662Z,13.50
2023-05-01T01:32:42.567Z,15.50
2023-05-01T01:35:21.773Z,17.70
2023-05-01T01:37:58.558Z,16.30
2023-05-01T01:40:34.691Z,15.90
2023-05-01T01:43:06.245Z,16.30
2023-05-01T01:45:44.162Z,18.90
2023-05-01T01:48:18.031Z,15.80
2023-05-01T01:50:47.877Z,15.80
2023-05-01T01:53:18.789Z,15.40
2023-05-01T01:55:48.719Z,19.40
2023-05-01T01:58:17.925Z,15.40
2023-05-01T02:00:48.144Z,17.50
2023-05-01T02:03:18.316Z,16.00
2023-05-01T02:05:47.671Z,16.50
2023-05-01T02:08:17.694Z,17.60
2023-05-01T02:10:48.223Z,17.40
2023-05-01T02:13:17.924Z,15.20
2023-05-01T02:15:47.548Z,15.90
2023-05-01T02:18:16.807Z,16.10
2023-05-01T02:20:45.926Z,17.80
2023-05-01T02:23:15.425Z,18.00
2023-05-01T02:25:45.470Z,19.80
2023-05-01T02:28:16.496Z,16.10
2023-05-01T02:30:47.608Z,14.00
2023-05-01T02:33:16.744Z,17.50
2023-05-01T02:35:48.401Z,15.30
2023-05-01T02:38:18.105Z,17.30
2023-05-01T02:40:51.237Z,16.00
2023-05-01T02:43:21.928Z,18.30
2023-05-01T02:45:51.998Z,18.20
2023-05-01T02:48:24.358Z,16.10
2023-05-01T02:50:54.403Z,14.60
2023-05-01T02:53:23.325Z,19.00
2023-05-01T02:55:55.105Z,21.00
2023-05-01T02:58:24.275Z,19.00
2023-05-01T03:00:52.993Z,21.10
2023-05-01T03:03:23.142Z,18.50
2023-05-01T03:05:52.673Z,16.20
2023-05-01T03:08:21.354Z,17.70
2023-05-01T03:10:51.625Z,17.10
2023-05-01T03:13:20.488Z,17.80
2023-05-01T03:15:49.994Z,20.00
2023-05-01T03:18:18.903Z,20.40
2023-05-01T03:20:57.370Z,17.30
2023-05-01T03:23:26.681Z,18.60
2023-05-01T03:25:55.266Z,20.30
2023-05-01T03:28:24.463Z,17.70
2023-05-01T03:30:53.977Z,18.50
2023-05-01T03:33:23.255Z,18.90
2023-05-01T03:36:01.126Z,18.70
2023-05-01T03:38:31.084Z,18.80
2023-05-01T03:41:11.971Z,20.90
2023-05-01T03:43:46.978Z,17.40
2023-05-01T03:46:33.433Z,16.80
2023-05-01T03:49:02.574Z,15.50
2023-05-01T03:51:33.408Z,16.40
2023-05-01T03:54:02.341Z,16.80
2023-05-01T03:56:37.028Z,19.60
2023-05-01T03:59:07.064Z,18.30
2023-05-01T04:01:35.964Z,16.90
2023-05-01T04:04:05.153Z,20.40
2023-05-01T04:06:34.567Z,18.60
2023-05-01T04:09:03.938Z,18.10
2023-05-01T04:11:32.748Z,19.30
2023-05-01T04:14:01.926Z,20.30
2023-05-01T04:16:31.157Z,21.50
2023-05-01T04:19:01.367Z,22.30
2023-05-01T04:21:32.198Z,23.50
2023-05-01T04:24:01.175Z,20.70
2023-05-01T04:26:31.406Z,19.70
2023-05-01T04:29:02.710Z,19.80
2023-05-01T04:31:31.892Z,18.00
2023-05-01T04:34:00.728Z,17.70
2023-05-01T04:36:30.150Z,20.00
2023-05-01T04:38:58.814Z,16.70
2023-05-01T04:41:29.180Z,19.30
2023-05-01T04:43:57.849Z,18.50
2023-05-01T04:46:26.838Z,19.30
2023-05-01T04:48:55.825Z,17.90
2023-05-01T04:51:24.505Z,18.60
2023-05-01T04:53:54.619Z,18.80
2023-05-01T04:56:26.193Z,16.30
2023-05-01T04:58:57.740Z,18.80
2023-05-01T05:01:27.982Z,17.60
2023-05-01T05:03:57.313Z,17.00
2023-05-01T05:06:26.700Z,17.00
2023-05-01T05:08:57.513Z,16.40
2023-05-01T05:11:26.914Z,16.00
2023-05-01T05:14:12.900Z,14.90
2023-05-01T05:16:42.205Z,18.20
2023-05-01T05:19:12.297Z,18.00
2023-05-01T05:21:43.045Z,16.30
2023-05-01T05:24:12.551Z,17.60
2023-05-01T05:26:41.965Z,19.70
2023-05-01T05:29:11.147Z,16.30
2023-05-01T05:31:40.099Z,16.40
2023-05-01T05:34:09.224Z,16.50
2023-05-01T05:36:38.422Z,18.10
2023-05-01T05:39:07.529Z,18.70
2023-05-01T05:41:37.147Z,19.10
2023-05-01T05:44:06.335Z,18.20
2023-05-01T05:46:35.416Z,17.20
2023-05-01T05:49:04.221Z,15.40
2023-05-01T05:51:33.527Z,14.80
2023-05-01T05:54:03.220Z,19.30
2023-05-01T05:56:32.523Z,18.30
2023-05-01T05:59:04.283Z,15.60
2023-05-01T06:01:33.583Z,17.30
2023-05-01T06:04:02.894Z,15.30
2023-05-01T06:06:32.768Z,15.10
2023-05-01T06:09:02.984Z,15.50
2023-05-01T06:11:32.827Z,18.10
2023-05-01T06:14:04.058Z,17.20
2023-05-01T06:16:34.583Z,17.50
2023-05-01T06:19:04.830Z,15.70
2023-05-01T06:21:36.395Z,16.80
2023-05-01T06:24:06.563Z,14.20
2023-05-01T06:26:44.314Z,12.60
2023-05-01T06:29:13.410Z,17.30
2023-05-01T06:31:42.775Z,14.50
2023-05-01T06:34:12.224Z,15.00
2023-05-01T06:36:59.616Z,14.70
2023-05-01T06:39:28.801Z,17.20
2023-05-01T06:41:57.913Z,15.60
2023-05-01T06:44:36.649Z,15.10
2023-05-01T06:47:06.030Z,15.30
2023-05-01T06:49:34.822Z,13.00
2023-05-01T06:52:04.438Z,14.10
2023-05-01T06:54:33.125Z,13.90
2023-05-01T06:57:02.100Z,13.00
2023-05-01T06:59:32.020Z,13.80
2023-05-01T07:02:01.149Z,12.30
2023-05-01T07:04:29.822Z,13.30
2023-05-01T07:06:58.580Z,11.50
2023-05-01T07:09:27.574Z,11.40
2023-05-01T07:11:58.960Z,14.00
2023-05-01T07:14:28.227Z,12.50
2023-05-01T07:16:57.441Z,13.70
2023-05-01T07:19:26.626Z,13.00
2023-05-01T07:21:55.727Z,15.80
2023-05-01T07:24:24.507Z,12.70
2023-05-01T07:26:53.306Z,12.50
2023-05-01T07:29:22.186Z,12.20
2023-05-01T07:31:51.020Z,13.10
2023-05-01T07:34:20.065Z,12.70
2023-05-01T07:36:48.966Z,13.60
2023-05-01T07:39:18.529Z,13.20
2023-05-01T07:41:48.085Z,11.90
2023-05-01T07:44:17.291Z,12.80
2023-05-01T07:46:46.066Z,13.60
2023-05-01T07:49:14.937Z,12.00
2023-05-01T07:51:45.327Z,13.20
2023-05-01T07:54:16.603Z,12.00
2023-05-01T07:56:46.354Z,9.00
2023-05-01T07:59:16.746Z,11.30
2023-05-01T08:01:52.003Z,9.70
2023-05-01T08:04:28.998Z,9.60
2023-05-01T08:06:58.994Z,10.80
2023-05-01T08:09:29.101Z,10.60
2023-05-01T08:11:58.103Z,9.80
2023-05-01T08:14:26.884Z,9.70
2023-05-01T08:16:56.295Z,8.90
2023-05-01T08:19:25.802Z,11.20
2023-05-01T08:21:55.972Z,13.40
2023-05-01T08:24:24.889Z,10.90
2023-05-01T08:26:53.964Z,10.10
2023-05-01T08:29:23.412Z,11.00
2023-05-01T08:31:53.067Z,13.80
2023-05-01T08:34:23.170Z,10.90
2023-05-01T08:36:52.437Z,10.20
2023-05-01T08:39:22.162Z,9.00
2023-05-01T08:41:51.647Z,10.30
2023-05-01T08:44:26.035Z,10.50
2023-05-01T08:47:03.319Z,13.40
2023-05-01T08:49:35.147Z,13.60
2023-05-01T08:52:05.107Z,12.60
2023-05-01T08:54:34.271Z,13.10
2023-05-01T08:57:08.904Z,13.40
2023-05-01T08:59:40.086Z,12.80
2023-05-01T09:02:10.390Z,16.50
2023-05-01T09:04:41.353Z,12.90
2023-05-01T09:07:13.434Z,12.30
2023-05-01T09:09:42.214Z,14.30
2023-05-01T09:12:26.651Z,11.90
2023-05-01T09:14:56.684Z,12.60
2023-05-01T09:17:26.000Z,10.20
2023-05-01T09:19:54.831Z,10.90
2023-05-01T09:22:24.276Z,10.80
2023-05-01T09:24:52.968Z,10.20
2023-05-01T09:27:21.764Z,12.60
2023-05-01T09:29:50.497Z,10.50
2023-05-01T09:32:26.276Z,10.60
2023-05-01T09:34:56.337Z,10.80
2023-05-01T09:37:27.989Z,11.50
2023-05-01T09:40:02.801Z,11.20
2023-05-01T09:42:35.584Z,11.20
2023-05-01T09:45:13.766Z,11.30
2023-05-01T09:47:44.933Z,13.90
2023-05-01T09:50:33.916Z,12.60
2023-05-01T09:53:05.127Z,12.60
2023-05-01T09:55:34.742Z,8.20
2023-05-01T09:58:04.126Z,11.30
2023-05-01T10:00:33.867Z,9.70
2023-05-01T10:03:14.894Z,10.20
2023-05-01T10:05:44.875Z,9.80
2023-05-01T10:08:16.997Z,9.50
2023-05-01T10:11:00.966Z,11.70
2023-05-01T10:13:30.627Z,9.60
2023-05-01T10:16:01.968Z,10.60
2023-05-01T10:18:31.308Z,8.90
2023-05-01T10:21:00.110Z,10.10
2023-05-01T10:23:29.807Z,13.30
2023-05-01T10:26:00.847Z,10.90
2023-05-01T10:28:31.186Z,10.10
2023-05-01T10:30:59.896Z,11.30
2023-05-01T10:33:29.028Z,9.40
2023-05-01T10:36:00.209Z,10.00
2023-05-01T10:38:37.008Z,11.30
2023-05-01T10:41:07.098Z,8.80
2023-05-01T10:43:35.788Z,9.10
2023-05-01T10:46:10.371Z,8.70
2023-05-01T10:48:45.351Z,10.40
2023-05-01T10:51:17.671Z,9.10
2023-05-01T10:53:47.842Z,11.10
2023-05-01T10:56:25.724Z,10.00
2023-05-01T10:58:56.353Z,9.60
2023-05-01T11:01:48.281Z,10.30
2023-05-01T11:04:20.034Z,9.20
2023-05-01T11:07:08.832Z,11.10
2023-05-01T11:09:46.504Z,9.80
2023-05-01T11:12:16.951Z,10.10
2023-05-01T11:14:55.122Z,9.00
2023-05-01T11:17:42.667Z,8.20
2023-05-01T11:20:12.261Z,8.50
2023-05-01T11:22:46.724Z,10.50
2023-05-01T11:25:23.632Z,9.20
2023-05-01T11:27:55.320Z,10.10
2023-05-01T11:30:24.534Z,10.30
2023-05-01T11:32:53.755Z,12.00
2023-05-01T11:35:27.615Z,9.50
2023-05-01T11:37:57.665Z,8.50
2023-05-01T11:40:31.724Z,10.90
2023-05-01T11:43:05.290Z,9.50
2023-05-01T11:45:39.201Z,8.80
2023-05-01T11:48:16.396Z,10.30
2023-05-01T11:50:45.137Z,10.20
2023-05-01T11:53:18.987Z,8.80
2023-05-01T11:55:47.723Z,9.80
2023-05-01T11:58:16.332Z,8.90
2023-05-01T12:00:45.330Z,9.80
2023-05-01T12:03:15.527Z,11.30
2023-05-01T12:05:46.064Z,9.60
2023-05-01T12:08:23.656Z,9.30
2023-05-01T12:10:58.020Z,8.40
2023-05-01T12:13:27.732Z,9.80
2023-05-01T12:15:57.593Z,10.00
2023-05-01T12:18:26.540Z,9.00
2023-05-01T12:20:55.893Z,10.10
2023-05-01T12:23:33.283Z,10.00
2023-05-01T12:26:03.748Z,9.20
2023-05-01T12:28:32.675Z,9.10
2023-05-01T12:31:05.517Z,10.70
2023-05-01T12:33:34.570Z,9.60
2023-05-01T12:36:11.998Z,9.20
2023-05-01T12:38:40.750Z,10.00
2023-05-01T12:41:12.489Z,8.50
2023-05-01T12:43:42.413Z,9.70
2023-05-01T12:46:15.251Z,10.20
2023-05-01T12:48:43.882Z,11.20
2023-05-01T12:51:21.782Z,9.90
2023-05-01T12:53:52.086Z,9.40
2023-05-01T12:56:26.336Z,9.60
2023-05-01T12:58:56.031Z,9.40
2023-05-01T13:01:29.297Z,8.80
2023-05-01T13:03:59.471Z,9.30
2023-05-01T13:06:34.282Z,9.90
2023-05-01T13:09:10.652Z,11.90
2023-05-01T13:11:39.435Z,9.20
2023-05-01T13:14:12.820Z,10.20
2023-05-01T13:16:47.015Z,11.70
2023-05-01T13:19:27.161Z,9.90
2023-05-01T13:21:59.031Z,9.90
2023-05-01T13:24:46.585Z,10.40
2023-05-01T13:27:15.395Z,9.60
2023-05-01T13:29:53.319Z,10.30
2023-05-01T13:32:21.949Z,10.90
2023-05-01T13:34:51.267Z,10.90
2023-05-01T13:37:21.595Z,9.70
2023-05-01T13:39:50.429Z,9.20
2023-05-01T13:42:24.434Z,13.50
2023-05-01T13:44:57.250Z,11.80
2023-05-01T13:47:27.236Z,12.30
2023-05-01T13:49:56.441Z,8.90
2023-05-01T13:52:25.357Z,8.60
2023-05-01T13:54:56.878Z,8.40
2023-05-01T13:57:25.814Z,8.80
2023-05-01T13:59:54.584Z,7.00
2023-05-01T14:02:30.171Z,9.00
2023-05-01T14:05:00.790Z,7.90
2023-05-01T14:07:30.068Z,7.80
2023-05-01T14:10:00.381Z,8.90
2023-05-01T14:12:31.021Z,8.60
2023-05-01T14:15:01.859Z,8.70
2023-05-01T14:17:33.168Z,8.70
2023-05-01T14:20:02.912Z,9.90
2023-05-01T14:22:44.020Z,9.20
2023-05-01T14:25:23.530Z,10.50
2023-05-01T14:27:53.864Z,9.90
2023-05-01T14:30:30.312Z,11.60
2023-05-01T14:32:58.841Z,8.60
2023-05-01T14:35:28.110Z,8.00
2023-05-01T14:37:58.029Z,9.00
2023-05-01T14:40:28.090Z,9.90
2023-05-01T14:42:58.391Z,10.10
2023-05-01T14:45:27.553Z,8.60
2023-05-01T14:47:56.373Z,6.80
2023-05-01T14:50:28.467Z,7.70
2023-05-01T14:52:59.328Z,7.60
2023-05-01T14:55:34.974Z,8.90
2023-05-01T14:58:04.100Z,9.60
2023-05-01T15:00:32.829Z,9.40
2023-05-01T15:03:02.083Z,8.30
2023-05-01T15:05:31.724Z,6.20
2023-05-01T15:08:04.684Z,7.00
2023-05-01T15:10:34.505Z,6.80
2023-05-01T15:13:03.288Z,9.50
2023-05-01T15:15:32.102Z,7.60
2023-05-01T15:18:00.995Z,8.10
2023-05-01T15:20:30.477Z,7.60
2023-05-01T15:22:59.068Z,6.30
2023-05-01T15:25:27.842Z,7.10
2023-05-01T15:27:57.694Z,7.70
2023-05-01T15:30:26.236Z,7.50
2023-05-01T15:32:56.467Z,7.90
2023-05-01T15:35:26.604Z,8.40
2023-05-01T15:37:57.236Z,8.80
2023-05-01T15:40:25.807Z,9.70
2023-05-01T15:42:54.904Z,9.60
2023-05-01T15:45:23.865Z,8.90
2023-05-01T15:47:52.608Z,8.00
2023-05-01T15:50:22.176Z,8.30
2023-05-01T15:52:53.116Z,8.40
2023-05-01T15:55:22.437Z,10.10
2023-05-01T15:57:51.536Z,9.20
2023-05-01T16:00:22.182Z,9.60
2023-05-01T16:02:51.137Z,8.10
2023-05-01T16:05:23.613Z,12.70
2023-05-01T16:07:55.677Z,12.90
2023-05-01T16:10:25.996Z,12.00
2023-05-01T16:12:54.802Z,10.20
2023-05-01T16:15:23.777Z,11.40
2023-05-01T16:17:55.248Z,11.20
2023-05-01T16:20:24.437Z,9.30
2023-05-01T16:22:53.207Z,9.80
2023-05-01T16:25:22.505Z,9.30
2023-05-01T16:27:52.528Z,8.10
2023-05-01T16:30:25.555Z,8.60
2023-05-01T16:32:54.468Z,8.10
2023-05-01T16:35:27.936Z,7.80
2023-05-01T16:37:57.008Z,8.90
2023-05-01T16:40:25.883Z,6.80
2023-05-01T16:42:55.084Z,8.00
2023-05-01T16:45:23.747Z,10.80
2023-05-01T16:47:52.390Z,7.70
2023-05-01T16:50:23.090Z,9.50
2023-05-01T16:52:55.346Z,8.30
2023-05-01T16:55:25.330Z,10.70
2023-05-01T16:57:54.794Z,7.60
2023-05-01T17:00:23.997Z,8.70
2023-05-01T17:02:55.424Z,7.70
2023-05-01T17:05:24.223Z,9.20
2023-05-01T17:07:53.315Z,8.30
2023-05-01T17:10:22.405Z,7.90
2023-05-01T17:12:51.624Z,9.80
2023-05-01T17:15:20.803Z,9.70
2023-05-01T17:17:49.920Z,7.80
2023-05-01T17:20:19.999Z,8.60
2023-05-01T17:22:49.102Z,8.60
2023-05-01T17:25:18.233Z,9.50
2023-05-01T17:27:46.767Z,7.90
2023-05-01T17:30:16.174Z,10.80
2023-05-01T17:32:45.383Z,9.60
2023-05-01T17:35:17.759Z,12.80
2023-05-01T17:37:46.752Z,10.60
2023-05-01T17:40:16.887Z,10.10
2023-05-01T17:42:46.161Z,12.40
2023-05-01T17:45:15.780Z,12.40
2023-05-01T17:47:47.624Z,10.60
2023-05-01T17:50:16.541Z,8.70
2023-05-01T17:52:46.631Z,10.50
2023-05-01T17:55:18.203Z,12.20
2023-05-01T17:57:48.114Z,12.90
2023-05-01T18:00:18.581Z,9.70
2023-05-01T18:02:49.558Z,12.00
2023-05-01T18:05:18.807Z,12.00
2023-05-01T18:07:49.105Z,13.70
2023-05-01T18:10:18.448Z,11.30
2023-05-01T18:12:51.728Z,12.20
2023-05-01T18:15:22.986Z,12.00
2023-05-01T18:17:53.235Z,11.50
2023-05-01T18:20:24.118Z,10.40
2023-05-01T18:22:54.778Z,12.90
2023-05-01T18:25:24.796Z,12.30
2023-05-01T18:27:56.746Z,10.50
2023-05-01T18:30:30.945Z,12.50
2023-05-01T18:33:01.303Z,11.40
2023-05-01T18:35:33.716Z,13.80
2023-05-01T18:38:03.140Z,12.40
2023-05-01T18:40:33.345Z,14.20
2023-05-01T18:43:05.616Z,12.50
2023-05-01T18:45:35.839Z,13.00
2023-05-01T18:48:07.021Z,10.70
2023-05-01T18:50:38.784Z,11.10
2023-05-01T18:53:09.665Z,11.80
2023-05-01T18:55:39.229Z,10.70
2023-05-01T18:58:09.396Z,11.40
2023-05-01T19:00:40.767Z,10.30
2023-05-01T19:03:15.478Z,12.90
2023-05-01T19:05:46.200Z,14.30
2023-05-01T19:08:16.985Z,12.80
2023-05-01T19:10:47.051Z,13.10
2023-05-01T19:13:18.520Z,11.10
2023-05-01T19:15:48.959Z,12.10
2023-05-01T19:18:18.557Z,10.10
2023-05-01T19:20:48.699Z,12.50
2023-05-01T19:23:23.056Z,12.00
2023-05-01T19:26:01.605Z,12.00
2023-05-01T19:28:38.460Z,11.70
2023-05-01T19:31:14.567Z,9.80
2023-05-01T19:33:54.279Z,10.00
2023-05-01T19:36:29.744Z,8.40
2023-05-01T19:39:08.186Z,9.30
2023-05-01T19:41:42.212Z,9.40
2023-05-01T19:44:19.086Z,9.10
2023-05-01T19:46:53.442Z,8.80
2023-05-01T19:49:27.482Z,11.50
2023-05-01T19:52:04.673Z,9.50
2023-05-01T19:54:45.918Z,9.20
2023-05-01T19:57:19.457Z,11.30
2023-05-01T19:59:50.809Z,8.80
2023-05-01T20:02:24.488Z,9.30
2023-05-01T20:04:58.219Z,9.80
2023-05-01T20:07:34.620Z,11.30
2023-05-01T20:10:09.286Z,10.90
2023-05-01T20:12:41.660Z,11.70
2023-05-01T20:15:12.398Z,10.80
2023-05-01T20:17:42.620Z,11.20
2023-05-01T20:20:11.817Z,10.50
2023-05-01T20:22:41.097Z,11.00
2023-05-01T20:25:11.108Z,9.40
2023-05-01T20:27:41.122Z,9.80
2023-05-01T20:30:12.068Z,11.10
2023-05-01T20:32:44.976Z,11.10
2023-05-01T20:35:14.698Z,10.40
2023-05-01T20:37:43.648Z,9.80
2023-05-01T20:40:13.377Z,9.60
2023-05-01T20:42:43.586Z,10.50
2023-05-01T20:45:13.089Z,10.00
2023-05-01T20:47:42.033Z,11.70
2023-05-01T20:50:11.687Z,10.70
2023-05-01T20:52:40.823Z,12.40
2023-05-01T20:55:10.193Z,11.90
2023-05-01T20:57:40.636Z,12.70
2023-05-01T21:00:09.940Z,11.90
2023-05-01T21:02:39.631Z,11.80
2023-05-01T21:05:12.540Z,10.40
2023-05-01T21:07:41.615Z,11.50
2023-05-01T21:10:11.292Z,10.40
2023-05-01T21:12:45.220Z,10.30
2023-05-01T21:15:15.340Z,10.00
2023-05-01T21:17:44.211Z,11.50
2023-05-01T21:20:17.136Z,12.10
2023-05-01T21:22:46.602Z,10.90
2023-05-01T21:25:20.199Z,9.70
2023-05-01T21:27:48.682Z,9.60
2023-05-01T21:30:37.750Z,9.70
2023-05-01T21:33:08.929Z,10.20
2023-05-01T21:35:42.287Z,9.60
2023-05-01T21:38:11.522Z,10.60
2023-05-01T21:40:43.749Z,10.10
2023-05-01T21:43:15.523Z,9.50
2023-05-01T21:45:50.307Z,10.80
2023-05-01T21:48:20.212Z,9.80
2023-05-01T21:50:50.444Z,9.30
2023-05-01T21:53:20.134Z,10.70
2023-05-01T21:55:49.301Z,10.00
2023-05-01T21:58:18.192Z,10.60
2023-05-01T22:00:47.225Z,9.20
2023-05-01T22:03:18.464Z,9.30
2023-05-01T22:05:47.211Z,10.30
2023-05-01T22:08:15.907Z,9.50
2023-05-01T22:10:45.792Z,10.40
2023-05-01T22:13:14.425Z,11.20
2023-05-01T22:15:43.281Z,10.90
2023-05-01T22:18:18.394Z,10.40
2023-05-01T22:20:52.676Z,9.90
2023-05-01T22:23:27.918Z,9.80
2023-05-01T22:26:01.052Z,11.00
2023-05-01T22:28:34.526Z,12.90
2023-05-01T22:31:07.498Z,12.00
2023-05-01T22:33:38.094Z,11.30
2023-05-01T22:36:07.576Z,11.00
2023-05-01T22:38:36.870Z,11.20
2023-05-01T22:41:06.477Z,10.40
2023-05-01T22:43:35.188Z,11.30
2023-05-01T22:46:06.265Z,11.40
2023-05-01T22:48:35.220Z,11.60
2023-05-01T22:51:04.408Z,11.50
2023-05-01T22:53:33.219Z,10.60
2023-05-01T22:56:02.091Z,12.90
2023-05-01T22:58:30.895Z,10.30
2023-05-01T23:00:59.879Z,10.30
2023-05-01T23:03:34.574Z,10.40
2023-05-01T23:06:08.099Z,11.60
2023-05-01T23:08:42.356Z,17.40
2023-05-01T23:11:22.142Z,11.20
2023-05-01T23:13:56.693Z,11.90
2023-05-01T23:16:28.294Z,11.10
2023-05-01T23:19:01.368Z,12.10
2023-05-01T23:21:34.043Z,11.70
2023-05-01T23:24:06.637Z,11.80
2023-05-01T23:26:42.540Z,11.30
2023-05-01T23:29:18.308Z,11.80
2023-05-01T23:31:50.266Z,10.70
2023-05-01T23:34:20.239Z,12.00
2023-05-01T23:36:49.083Z,11.00
2023-05-01T23:39:18.538Z,10.80
2023-05-01T23:41:47.648Z,12.40
2023-05-01T23:44:16.731Z,12.20
2023-05-01T23:46:45.556Z,13.20
2023-05-01T23:49:14.425Z,12.70
2023-05-01T23:51:45.564Z,10.40
2023-05-01T23:54:14.243Z,11.30
2023-05-01T23:56:43.343Z,10.60
2023-05-01T23:59:12.543Z,12.90
